Time;durP1;ratioP1;P1;durP2;ratioP2;P2;SDS_P1;SDS_P2;PMS_P1;PMS_P2;Temp;Humidity;BMP_temperature;BMP_pressure;BME280_temperature;BME280_humidity;BME280_pressure;Samples;Min_cycle;Max_cycle;Signal;HPM_P1;HPM_P2
2024/03/10 00:02:00;;;;;;;3.97;2.80;;;10.20;99.90;;;;;;5007764;28;20085;-76
2024/03/10 00:04:26;;;;;;;4.00;3.70;;;10.20;99.90;;;;;;5004897;28;20021;-76
2024/03/10 00:06:52;;;;;;;4.07;3.78;;;10.20;99.90;;;;;;5004757;28;20435;-76
2024/03/10 00:09:17;;;;;;;4.47;3.90;;;10.20;99.90;;;;;;5021279;28;20484;-76
2024/03/10 00:11:44;;;;;;;5.47;5.07;;;10.10;99.90;;;;;;5006140;28;20037;-76
2024/03/10 00:14:09;;;;;;;7.55;6.93;;;10.10;99.90;;;;;;5001729;28;20117;-76
2024/03/10 00:16:35;;;;;;;4.30;3.92;;;10.10;99.90;;;;;;5002489;28;20149;-76
2024/03/10 00:19:03;;;;;;;3.92;3.72;;;10.00;99.90;;;;;;5021170;28;20378;-76
2024/03/10 00:21:29;;;;;;;4.18;3.97;;;10.00;99.90;;;;;;5008790;28;20037;-76
2024/03/10 00:23:55;;;;;;;3.95;3.63;;;10.00;99.90;;;;;;5021251;28;20109;-76
2024/03/10 00:26:21;;;;;;;5.03;4.60;;;10.00;99.90;;;;;;5005968;28;20429;-76
2024/03/10 00:28:48;;;;;;;6.53;5.93;;;10.00;99.90;;;;;;5006007;28;20040;-76
2024/03/10 00:31:14;;;;;;;9.68;8.45;;;10.00;99.90;;;;;;5003681;28;20029;-76
2024/03/10 00:33:40;;;;;;;12.82;11.57;;;10.00;99.90;;;;;;5003536;28;20026;-76
2024/03/10 00:36:07;;;;;;;13.48;11.43;;;10.00;99.90;;;;;;5004301;28;20050;-76
2024/03/10 00:38:36;;;;;;;13.57;12.15;;;10.00;99.90;;;;;;5020203;28;20038;-76
2024/03/10 00:41:02;;;;;;;14.18;11.75;;;10.00;99.90;;;;;;5003637;28;20018;-76
2024/03/10 00:43:28;;;;;;;11.00;10.00;;;10.00;99.90;;;;;;5020747;28;20022;-76
2024/03/10 00:45:54;;;;;;;9.80;8.90;;;9.90;99.90;;;;;;5007613;28;20018;-76
2024/03/10 00:48:20;;;;;;;7.82;7.03;;;10.00;99.90;;;;;;5005103;28;20057;-76
2024/03/10 00:50:46;;;;;;;6.82;5.93;;;9.90;99.90;;;;;;5002154;28;20026;-76
2024/03/10 00:53:13;;;;;;;7.38;4.70;;;10.00;99.90;;;;;;5006475;28;20029;-76
2024/03/10 00:55:39;;;;;;;6.70;6.20;;;10.00;99.90;;;;;;5001964;28;20057;-76
2024/03/10 00:58:05;;;;;;;6.63;4.90;;;9.90;99.90;;;;;;5002097;28;20066;-76
2024/03/10 01:00:32;;;;;;;3.72;3.42;;;9.90;99.90;;;;;;5001538;28;20018;-76
2024/03/10 01:02:58;;;;;;;4.18;3.47;;;9.90;99.90;;;;;;5005169;28;20429;-76
2024/03/10 01:05:24;;;;;;;4.43;3.47;;;9.90;99.90;;;;;;5003421;28;20026;-76
2024/03/10 01:07:50;;;;;;;3.42;3.22;;;9.90;99.90;;;;;;5003929;28;20075;-76
2024/03/10 01:10:16;;;;;;;3.00;2.75;;;9.90;99.90;;;;;;5001665;28;20042;-76
2024/03/10 01:12:42;;;;;;;3.38;2.33;;;9.90;99.90;;;;;;5004213;28;20042;-76
2024/03/10 01:15:08;;;;;;;2.45;2.25;;;9.90;99.90;;;;;;5008001;28;20503;-76
2024/03/10 01:17:34;;;;;;;2.55;2.40;;;9.80;99.90;;;;;;5008892;28;20033;-76
2024/03/10 01:20:00;;;;;;;3.85;2.35;;;9.80;99.90;;;;;;5009345;28;20018;-76
2024/03/10 01:22:26;;;;;;;3.40;2.38;;;9.80;99.90;;;;;;5009742;28;20049;-76
2024/03/10 01:24:52;;;;;;;2.47;2.28;;;9.90;99.90;;;;;;5009150;28;20030;-76
2024/03/10 01:27:18;;;;;;;2.67;2.00;;;9.90;99.90;;;;;;5009391;28;20025;-76
2024/03/10 01:29:44;;;;;;;4.35;1.80;;;9.80;99.90;;;;;;5010157;28;20018;-76
2024/03/10 01:32:10;;;;;;;1.90;1.80;;;9.80;99.90;;;;;;5008972;28;20044;-76
2024/03/10 01:34:36;;;;;;;3.42;2.22;;;9.90;99.90;;;;;;5021563;28;20498;-76
2024/03/10 01:37:05;;;;;;;3.00;2.80;;;9.80;99.90;;;;;;5009709;28;20423;-76
2024/03/10 01:39:30;;;;;;;3.58;3.17;;;9.80;99.90;;;;;;5009779;28;20437;-76
2024/03/10 01:41:57;;;;;;;2.28;2.17;;;9.80;99.90;;;;;;5025937;28;20079;-76
2024/03/10 01:44:23;;;;;;;3.17;2.30;;;9.80;99.90;;;;;;5024833;28;20364;-76
2024/03/10 01:46:50;;;;;;;2.00;1.70;;;9.80;99.90;;;;;;5008758;28;20138;-76
2024/03/10 01:49:17;;;;;;;2.45;2.25;;;9.80;99.90;;;;;;5007443;28;20049;-76
2024/03/10 01:51:44;;;;;;;2.20;1.70;;;9.90;99.90;;;;;;5008444;28;20373;-76
2024/03/10 01:54:14;;;;;;;1.60;1.20;;;9.90;99.90;;;;;;5002834;28;20117;-76
2024/03/10 01:56:40;;;;;;;1.25;0.98;;;9.90;99.90;;;;;;5003799;28;20033;-76
2024/03/10 01:59:14;;;;;;;1.45;1.15;;;9.90;99.90;;;;;;5002611;28;20454;-76
2024/03/10 02:01:40;;;;;;;1.63;1.10;;;9.90;99.90;;;;;;5007364;28;20054;-77
2024/03/10 02:04:09;;;;;;;1.80;0.95;;;9.90;99.90;;;;;;5002531;28;20516;-76
2024/03/10 02:06:36;;;;;;;1.15;0.82;;;9.90;99.90;;;;;;5004000;28;20022;-76
2024/03/10 02:09:06;;;;;;;0.70;0.70;;;9.90;99.90;;;;;;5003529;28;20022;-76
2024/03/10 02:11:32;;;;;;;0.93;0.73;;;10.00;99.90;;;;;;5005119;28;20069;-77
2024/03/10 02:13:58;;;;;;;0.93;0.80;;;10.10;99.90;;;;;;5001659;28;20459;-76
2024/03/10 02:16:23;;;;;;;1.23;1.00;;;10.10;99.90;;;;;;5006767;28;20029;-76
2024/03/10 02:18:52;;;;;;;0.65;0.60;;;10.00;99.90;;;;;;5000262;28;20042;-76
2024/03/10 02:21:21;;;;;;;0.73;0.70;;;10.00;99.90;;;;;;5007370;28;20378;-76
2024/03/10 02:23:47;;;;;;;1.00;0.90;;;10.00;99.90;;;;;;5024949;28;20403;-76
2024/03/10 02:26:15;;;;;;;1.02;0.98;;;10.00;99.90;;;;;;5010207;28;21112;-76
2024/03/10 02:29:15;;;;;;;0.90;0.90;;;10.10;99.90;;;;;;5009099;28;20026;-76
2024/03/10 02:47:59;;;;;;;2.80;0.88;;;10.30;99.90;;;;;;4999503;28;20041;-79
2024/03/10 02:50:25;;;;;;;0.50;0.50;;;10.30;99.90;;;;;;4999482;28;20033;-79
2024/03/10 02:52:51;;;;;;;1.23;0.70;;;10.30;99.90;;;;;;5016935;28;20030;-79
2024/03/10 02:55:17;;;;;;;0.80;0.80;;;10.40;99.90;;;;;;5008959;28;20472;-78
2024/03/10 02:57:42;;;;;;;0.80;0.80;;;10.40;99.90;;;;;;5006606;28;20029;-79
2024/03/10 03:00:13;;;;;;;1.85;0.77;;;10.40;99.90;;;;;;5013778;28;20037;-78
2024/03/10 03:02:39;;;;;;;0.60;0.60;;;10.40;99.90;;;;;;4998850;28;20034;-79
2024/03/10 03:05:06;;;;;;;0.60;0.60;;;10.40;99.90;;;;;;5000045;28;20047;-79
2024/03/10 03:07:33;;;;;;;2.45;0.95;;;10.40;99.90;;;;;;5003941;28;20399;-78
2024/03/10 03:09:59;;;;;;;0.63;0.63;;;10.50;99.90;;;;;;4996986;28;20492;-78
2024/03/10 03:12:25;;;;;;;1.48;0.60;;;10.50;99.90;;;;;;5000990;28;20041;-78
2024/03/10 03:14:54;;;;;;;0.52;0.52;;;10.50;99.90;;;;;;4994683;28;20535;-78
2024/03/10 03:17:23;;;;;;;1.50;0.60;;;10.50;99.90;;;;;;4998543;28;20038;-79
2024/03/10 03:19:49;;;;;;;0.95;0.60;;;10.50;99.90;;;;;;5006454;28;20284;-78
2024/03/10 03:22:15;;;;;;;0.88;0.68;;;10.50;99.90;;;;;;5001430;28;20427;-78
2024/03/10 03:24:40;;;;;;;1.95;0.80;;;10.50;99.90;;;;;;5001572;28;20025;-78
2024/03/10 03:27:08;;;;;;;2.85;0.70;;;10.40;99.90;;;;;;5004777;28;20056;-78
2024/03/10 03:29:33;;;;;;;1.02;0.70;;;10.50;99.90;;;;;;5019210;28;20499;-78
2024/03/10 03:31:59;;;;;;;1.52;0.70;;;10.50;99.90;;;;;;5005303;28;20061;-78
2024/03/10 03:34:25;;;;;;;1.27;0.70;;;10.50;99.90;;;;;;5002916;28;20065;-78
2024/03/10 03:36:50;;;;;;;0.90;0.70;;;10.50;99.90;;;;;;5004332;28;20077;-79
2024/03/10 03:39:16;;;;;;;0.80;0.50;;;10.50;99.90;;;;;;5004811;28;20236;-78
2024/03/10 03:41:42;;;;;;;1.75;0.70;;;10.50;99.90;;;;;;5004435;28;20049;-78
2024/03/10 03:44:07;;;;;;;0.70;0.70;;;10.40;99.90;;;;;;5005796;28;20099;-79
2024/03/10 03:46:33;;;;;;;1.95;1.08;;;10.50;99.90;;;;;;5018137;28;20077;-78
2024/03/10 03:48:59;;;;;;;1.42;0.70;;;10.40;99.90;;;;;;5005728;28;20030;-78
2024/03/10 03:51:25;;;;;;;1.90;1.00;;;10.40;99.90;;;;;;5004962;28;20037;-78
2024/03/10 03:53:51;;;;;;;2.10;0.70;;;10.40;99.90;;;;;;5021581;28;20403;-79
2024/03/10 03:56:17;;;;;;;0.90;0.57;;;10.30;99.90;;;;;;5005602;28;20033;-78
2024/03/10 03:58:42;;;;;;;1.13;0.80;;;10.30;99.90;;;;;;5019900;28;20141;-78
2024/03/10 04:01:08;;;;;;;0.68;0.60;;;10.30;99.90;;;;;;5018083;28;20030;-78
2024/03/10 04:03:34;;;;;;;6.10;0.70;;;10.30;99.90;;;;;;5005117;28;20030;-78
2024/03/10 04:05:59;;;;;;;1.15;0.88;;;10.40;99.90;;;;;;5002334;28;20029;-79
2024/03/10 04:08:25;;;;;;;0.98;0.60;;;10.30;99.90;;;;;;5019921;28;20033;-78
2024/03/10 04:10:51;;;;;;;0.57;0.57;;;10.30;99.90;;;;;;5002952;28;20093;-78
2024/03/10 04:13:17;;;;;;;4.38;1.25;;;10.30;99.90;;;;;;5004415;28;20399;-79
2024/03/10 04:15:42;;;;;;;0.80;0.80;;;10.30;99.90;;;;;;5001903;28;20026;-78
2024/03/10 04:18:08;;;;;;;1.75;0.93;;;10.30;99.90;;;;;;5004445;28;20034;-79
2024/03/10 04:20:35;;;;;;;1.27;1.08;;;10.30;99.90;;;;;;5000457;28;20034;-78
2024/03/10 04:23:05;;;;;;;1.88;1.10;;;10.30;99.90;;;;;;5003156;28;20073;-78
2024/03/10 04:25:32;;;;;;;1.48;1.00;;;10.30;99.90;;;;;;5002692;28;20106;-79
2024/03/10 04:27:57;;;;;;;2.08;1.05;;;10.20;99.90;;;;;;5003209;28;20021;-79
2024/03/10 04:30:23;;;;;;;1.70;0.75;;;10.20;99.90;;;;;;5002904;28;20396;-79
2024/03/10 04:32:49;;;;;;;0.63;0.63;;;10.20;99.90;;;;;;5000999;28;20025;-79
2024/03/10 04:35:16;;;;;;;0.98;0.68;;;10.20;99.90;;;;;;5002381;28;20061;-79
2024/03/10 04:37:42;;;;;;;0.70;0.70;;;10.20;99.90;;;;;;5008893;28;20030;-79
2024/03/10 04:40:10;;;;;;;2.05;0.80;;;10.20;99.90;;;;;;5002697;28;20034;-78
2024/03/10 04:42:39;;;;;;;1.45;0.70;;;10.20;99.90;;;;;;5002294;28;20037;-79
2024/03/10 04:45:11;;;;;;;0.70;0.63;;;10.20;99.90;;;;;;5005098;28;20510;-79
2024/03/10 04:47:37;;;;;;;2.20;0.93;;;10.10;99.90;;;;;;5002416;28;20026;-79
2024/03/10 04:50:04;;;;;;;2.72;0.88;;;10.10;99.90;;;;;;5000336;28;20034;-79
2024/03/10 04:52:29;;;;;;;0.60;0.60;;;10.10;99.90;;;;;;5003911;28;20038;-79
2024/03/10 04:54:55;;;;;;;0.80;0.75;;;10.10;99.90;;;;;;5001224;28;20035;-79
2024/03/10 04:57:22;;;;;;;1.05;0.50;;;10.00;99.90;;;;;;5007349;28;20037;-79
2024/03/10 04:59:48;;;;;;;0.40;0.40;;;10.10;99.90;;;;;;5004344;28;20109;-79
2024/03/10 05:02:14;;;;;;;0.80;0.80;;;10.10;99.90;;;;;;5002562;28;20595;-79
2024/03/10 05:04:40;;;;;;;0.50;0.50;;;10.00;99.90;;;;;;4999843;28;20034;-79
2024/03/10 05:07:06;;;;;;;1.83;0.40;;;10.00;99.90;;;;;;5003079;28;20033;-79
2024/03/10 05:09:32;;;;;;;1.08;0.50;;;10.00;99.90;;;;;;5001352;28;20109;-79
2024/03/10 05:11:58;;;;;;;0.45;0.45;;;10.00;99.90;;;;;;5003210;28;20599;-79
2024/03/10 05:14:23;;;;;;;0.60;0.60;;;10.00;99.90;;;;;;5001068;28;20121;-79
2024/03/10 05:16:49;;;;;;;0.40;0.40;;;10.00;99.90;;;;;;5005360;28;20499;-79
2024/03/10 05:19:15;;;;;;;0.40;0.40;;;10.00;99.90;;;;;;5001081;28;20049;-79
2024/03/10 05:21:47;;;;;;;0.50;0.50;;;10.00;99.90;;;;;;5000657;28;20391;-79
2024/03/10 05:24:13;;;;;;;1.27;0.57;;;10.00;99.90;;;;;;5000693;28;20106;-79
2024/03/10 05:26:39;;;;;;;0.63;0.40;;;10.00;99.90;;;;;;5018184;28;20017;-79
2024/03/10 05:29:05;;;;;;;1.00;0.45;;;10.00;99.90;;;;;;5003132;28;20034;-79
2024/03/10 05:31:32;;;;;;;0.40;0.40;;;9.90;99.90;;;;;;5004120;28;20105;-79
2024/03/10 05:34:00;;;;;;;2.75;0.50;;;9.90;99.90;;;;;;4997338;28;20026;-79
2024/03/10 05:36:26;;;;;;;0.50;0.50;;;9.90;99.90;;;;;;5003379;28;20495;-79
2024/03/10 05:38:53;;;;;;;0.57;0.40;;;9.90;99.90;;;;;;5002777;28;20113;-79
2024/03/10 05:41:19;;;;;;;0.82;0.50;;;9.90;99.90;;;;;;5001533;28;20022;-79
2024/03/10 05:43:48;;;;;;;1.35;0.65;;;9.90;99.90;;;;;;5002919;28;20018;-79
2024/03/10 05:46:14;;;;;;;1.90;0.90;;;9.80;99.90;;;;;;5000140;28;20468;-79
2024/03/10 05:48:40;;;;;;;0.40;0.40;;;9.90;99.90;;;;;;5001647;28;20049;-79
2024/03/10 05:51:16;;;;;;;0.40;0.40;;;9.90;99.90;;;;;;4998996;28;20499;-79
2024/03/10 05:53:42;;;;;;;0.40;0.40;;;9.80;99.90;;;;;;5001187;28;20029;-79
2024/03/10 05:56:11;;;;;;;0.35;0.30;;;9.80;99.90;;;;;;5003296;28;20479;-79
2024/03/10 05:58:40;;;;;;;2.78;0.38;;;9.80;99.90;;;;;;5002090;28;20033;-79
2024/03/10 06:01:05;;;;;;;0.40;0.40;;;9.80;99.90;;;;;;5003820;28;20033;-79
2024/03/10 06:03:32;;;;;;;0.63;0.63;;;9.80;99.90;;;;;;5004122;28;20033;-79
2024/03/10 06:05:57;;;;;;;0.60;0.45;;;9.80;99.90;;;;;;5017334;28;20037;-79
2024/03/10 06:08:23;;;;;;;0.38;0.28;;;9.90;99.90;;;;;;5002319;28;20022;-79
2024/03/10 06:10:53;;;;;;;1.55;0.30;;;9.80;99.90;;;;;;5004123;28;20046;-79
2024/03/10 06:13:20;;;;;;;0.30;0.30;;;9.90;99.90;;;;;;5002837;28;20116;-79
2024/03/10 06:15:45;;;;;;;0.55;0.47;;;9.90;99.90;;;;;;4998713;28;20034;-79
2024/03/10 06:18:31;;;;;;;0.47;0.47;;;9.90;99.90;;;;;;5000099;28;20041;-79
2024/03/10 06:26:25;;;;;;;0.40;0.40;;;10.00;99.90;;;;;;5004337;28;20077;-79
2024/03/10 06:28:52;;;;;;;1.40;0.55;;;10.10;99.90;;;;;;4991961;28;20027;-79
2024/03/10 06:31:18;;;;;;;0.38;0.38;;;10.10;99.90;;;;;;5001498;28;20373;-79
2024/03/10 06:33:45;;;;;;;0.43;0.43;;;10.20;99.90;;;;;;5001045;28;20034;-80
2024/03/10 06:36:13;;;;;;;2.63;0.50;;;10.20;99.90;;;;;;5008162;28;20618;-79
2024/03/10 06:38:40;;;;;;;0.40;0.40;;;10.20;99.90;;;;;;5002576;28;20033;-80
2024/03/10 06:41:07;;;;;;;0.63;0.50;;;10.20;99.90;;;;;;5016061;28;20349;-80
2024/03/10 06:43:33;;;;;;;0.40;0.40;;;10.20;99.90;;;;;;5011789;28;20030;-80
2024/03/10 06:45:59;;;;;;;1.38;0.60;;;10.20;99.90;;;;;;5003878;28;20088;-80
2024/03/10 06:48:25;;;;;;;0.50;0.40;;;10.20;99.90;;;;;;5015380;28;20034;-80
2024/03/10 06:50:51;;;;;;;0.50;0.50;;;10.20;99.90;;;;;;5002381;28;20499;-80
2024/03/10 06:53:17;;;;;;;0.68;0.68;;;10.30;99.90;;;;;;4999742;28;20037;-80
2024/03/10 06:55:44;;;;;;;0.40;0.40;;;10.30;99.90;;;;;;5021244;28;20566;-80
2024/03/10 06:58:11;;;;;;;2.58;0.63;;;10.30;99.90;;;;;;5021078;28;20030;-80
2024/03/10 07:00:39;;;;;;;0.77;0.40;;;10.30;99.90;;;;;;5015495;28;20033;-80
2024/03/10 07:03:05;;;;;;;0.47;0.47;;;10.30;99.90;;;;;;5005910;28;20029;-80
2024/03/10 07:05:31;;;;;;;0.43;0.40;;;10.40;99.90;;;;;;5004821;28;20026;-80
2024/03/10 07:07:57;;;;;;;0.75;0.50;;;10.40;99.90;;;;;;5005678;28;20049;-80
2024/03/10 07:10:23;;;;;;;0.50;0.50;;;10.40;99.90;;;;;;5008626;28;20073;-80
2024/03/10 07:12:49;;;;;;;0.77;0.60;;;10.40;99.90;;;;;;5002822;28;20473;-80
2024/03/10 07:15:15;;;;;;;3.92;0.70;;;10.40;99.90;;;;;;5005769;28;20038;-80
2024/03/10 07:17:43;;;;;;;1.55;0.95;;;10.40;99.90;;;;;;5001748;28;20058;-80
2024/03/10 07:20:10;;;;;;;0.47;0.47;;;10.50;99.90;;;;;;5006489;28;20500;-80
2024/03/10 07:22:38;;;;;;;0.95;0.50;;;10.50;99.90;;;;;;5004673;28;20038;-80
2024/03/10 07:25:08;;;;;;;1.17;0.70;;;10.50;99.90;;;;;;5004409;28;20018;-80
2024/03/10 07:27:36;;;;;;;1.02;0.90;;;10.60;99.90;;;;;;5000211;28;20439;-80
2024/03/10 07:30:04;;;;;;;0.60;0.60;;;10.60;99.90;;;;;;5013447;28;20022;-80
2024/03/10 07:32:31;;;;;;;0.70;0.70;;;10.70;99.90;;;;;;5014363;28;20079;-80
2024/03/10 07:34:58;;;;;;;0.90;0.63;;;10.70;99.90;;;;;;5013118;28;20018;-80
2024/03/10 07:37:23;;;;;;;2.72;0.60;;;10.70;99.90;;;;;;5014213;28;20109;-80
2024/03/10 07:39:49;;;;;;;0.70;0.70;;;10.70;99.90;;;;;;5011233;28;20456;-80
2024/03/10 07:42:18;;;;;;;0.65;0.65;;;10.80;99.90;;;;;;5012892;28;20404;-80
2024/03/10 07:44:43;;;;;;;0.50;0.50;;;10.70;99.90;;;;;;5002193;28;20388;-81
2024/03/10 07:47:10;;;;;;;1.63;0.70;;;10.70;99.90;;;;;;5021612;28;20269;-81
2024/03/10 07:49:37;;;;;;;1.08;0.50;;;10.70;99.90;;;;;;5002281;28;20053;-81
2024/03/10 07:52:04;;;;;;;1.45;0.65;;;10.80;99.90;;;;;;5022902;28;20033;-81
2024/03/10 07:54:31;;;;;;;0.47;0.47;;;10.70;99.90;;;;;;5005812;28;20037;-81
2024/03/10 07:56:56;;;;;;;1.50;0.68;;;10.70;99.90;;;;;;5011568;28;20029;-81
2024/03/10 07:59:22;;;;;;;1.42;0.85;;;10.70;99.90;;;;;;5009628;28;20030;-81
2024/03/10 08:01:51;;;;;;;1.13;0.68;;;10.70;99.90;;;;;;5010239;28;20064;-79
2024/03/10 08:04:18;;;;;;;1.42;0.73;;;10.70;99.90;;;;;;5023352;28;20388;-81
2024/03/10 08:06:43;;;;;;;0.70;0.70;;;10.70;99.90;;;;;;5002083;28;20054;-81
2024/03/10 08:09:09;;;;;;;0.98;0.98;;;10.70;99.90;;;;;;5004213;28;20054;-81
2024/03/10 08:11:35;;;;;;;0.57;0.57;;;10.70;99.90;;;;;;5004639;28;20504;-81
2024/03/10 08:14:01;;;;;;;0.70;0.70;;;10.70;99.90;;;;;;5021267;28;20452;-81
2024/03/10 08:16:27;;;;;;;0.70;0.70;;;10.80;99.90;;;;;;5011931;28;20040;-81
2024/03/10 08:18:53;;;;;;;0.60;0.60;;;10.80;99.90;;;;;;5007318;28;20061;-82
2024/03/10 08:21:19;;;;;;;1.08;0.90;;;10.80;99.90;;;;;;5006836;28;20064;-81
2024/03/10 08:23:44;;;;;;;1.25;0.80;;;10.90;99.90;;;;;;5010915;28;20022;-81
2024/03/10 08:26:10;;;;;;;0.57;0.57;;;10.80;99.90;;;;;;5008555;28;20036;-81
2024/03/10 08:28:36;;;;;;;1.17;0.90;;;10.80;99.90;;;;;;5008961;28;20038;-82
2024/03/10 08:31:03;;;;;;;1.67;0.90;;;10.90;99.90;;;;;;5006839;28;20113;-82
2024/03/10 08:33:29;;;;;;;0.70;0.70;;;10.90;99.90;;;;;;5010587;28;20030;-82
2024/03/10 08:35:55;;;;;;;0.82;0.60;;;10.90;99.90;;;;;;5026474;28;20052;-82
2024/03/10 08:38:21;;;;;;;0.90;0.82;;;10.90;99.90;;;;;;5012347;28;20385;-82
2024/03/10 08:40:47;;;;;;;1.23;1.10;;;10.90;99.90;;;;;;5008664;28;20041;-82
2024/03/10 08:43:13;;;;;;;1.15;1.05;;;10.90;99.90;;;;;;5010177;28;20258;-82
2024/03/10 08:45:39;;;;;;;1.10;0.65;;;10.80;99.90;;;;;;5009752;28;20033;-82
2024/03/10 08:48:09;;;;;;;1.98;1.10;;;10.80;99.90;;;;;;5005889;28;20022;-83
2024/03/10 08:50:35;;;;;;;1.90;1.00;;;10.80;99.90;;;;;;5011750;28;20079;-84
2024/03/10 08:53:04;;;;;;;2.20;1.20;;;10.80;99.90;;;;;;5011825;28;20578;-84
2024/03/10 08:55:30;;;;;;;3.33;1.13;;;10.80;99.90;;;;;;5012725;28;20065;-81
2024/03/10 08:57:55;;;;;;;2.25;0.90;;;10.80;99.90;;;;;;5008961;28;20062;-81
2024/03/10 09:00:21;;;;;;;1.48;0.98;;;10.80;99.90;;;;;;5007779;28;20029;-81
2024/03/10 09:02:49;;;;;;;2.97;0.90;;;10.80;99.90;;;;;;5009339;28;20028;-81
2024/03/10 09:05:15;;;;;;;1.65;0.90;;;10.80;99.90;;;;;;5005886;28;20133;-81
2024/03/10 09:07:47;;;;;;;0.75;0.68;;;10.70;99.90;;;;;;5004368;28;20041;-82
2024/03/10 09:10:13;;;;;;;0.90;0.65;;;10.80;99.90;;;;;;5014336;28;20042;-82
2024/03/10 09:12:44;;;;;;;0.70;0.70;;;10.70;99.90;;;;;;5005626;28;20605;-82
2024/03/10 09:15:34;;;;;;;1.30;0.65;;;10.70;99.90;;;;;;5011119;28;20053;-82
2024/03/10 09:18:01;;;;;;;0.93;0.93;;;10.80;99.90;;;;;;4998258;28;20457;-82
2024/03/10 09:20:27;;;;;;;0.68;0.52;;;10.80;99.90;;;;;;4999875;28;20026;-84
2024/03/10 09:22:54;;;;;;;0.60;0.60;;;10.80;99.90;;;;;;5002242;28;20415;-84
2024/03/10 09:25:21;;;;;;;0.55;0.50;;;10.80;99.90;;;;;;5000315;28;20504;-84
2024/03/10 09:27:53;;;;;;;0.70;0.60;;;10.70;99.90;;;;;;5002624;28;20030;-84
2024/03/10 09:30:23;;;;;;;1.13;0.52;;;10.80;99.90;;;;;;4997021;28;20030;-84
2024/03/10 09:32:50;;;;;;;1.52;0.80;;;10.80;99.90;;;;;;5000948;28;20488;-84
2024/03/10 09:35:34;;;;;;;1.20;0.60;;;10.90;99.90;;;;;;5002480;28;20117;-84
2024/03/10 09:38:06;;;;;;;1.25;0.65;;;11.00;99.90;;;;;;5002001;28;20026;-84
2024/03/10 09:40:32;;;;;;;0.60;0.50;;;11.00;99.90;;;;;;4996659;28;20033;-84
2024/03/10 09:43:11;;;;;;;0.60;0.60;;;11.00;99.90;;;;;;4999582;28;20026;-84
2024/03/10 09:45:43;;;;;;;0.50;0.50;;;11.00;99.90;;;;;;5001065;28;20033;-84
2024/03/10 09:48:09;;;;;;;1.35;0.70;;;11.10;99.90;;;;;;5002943;28;20030;-83
2024/03/10 09:50:48;;;;;;;0.50;0.50;;;11.10;99.90;;;;;;4999843;28;20121;-83
2024/03/10 09:53:17;;;;;;;0.50;0.50;;;11.10;99.90;;;;;;4999886;28;20033;-83
2024/03/10 09:55:52;;;;;;;2.50;0.90;;;11.20;99.90;;;;;;5005189;28;20061;-83
2024/03/10 09:58:22;;;;;;;0.95;0.40;;;11.20;99.90;;;;;;5000556;28;20030;-83
2024/03/10 10:00:51;;;;;;;1.88;1.67;;;11.20;99.90;;;;;;5004399;28;20113;-83
2024/03/10 10:03:18;;;;;;;0.52;0.52;;;11.20;99.90;;;;;;5002064;28;20464;-83
2024/03/10 10:05:52;;;;;;;0.60;0.60;;;11.20;99.90;;;;;;4998781;28;20095;-82
2024/03/10 10:08:19;;;;;;;0.60;0.60;;;11.20;99.90;;;;;;4998620;28;20027;-83
2024/03/10 10:10:51;;;;;;;0.65;0.65;;;11.30;99.90;;;;;;5001021;28;20049;-82
2024/03/10 10:13:26;;;;;;;0.93;0.80;;;11.30;99.90;;;;;;4999414;28;20073;-83
2024/03/10 10:15:53;;;;;;;1.05;1.00;;;11.40;99.90;;;;;;5000114;28;20507;-83
2024/03/10 10:18:21;;;;;;;1.02;1.00;;;11.40;99.90;;;;;;5017005;28;20109;-83
2024/03/10 10:20:51;;;;;;;1.38;1.27;;;11.40;99.90;;;;;;5002359;28;20164;-82
2024/03/10 10:23:26;;;;;;;1.10;0.73;;;11.50;99.90;;;;;;4999122;28;20276;-82
2024/03/10 10:26:09;;;;;;;3.40;0.70;;;11.50;99.90;;;;;;4999656;28;20037;-82
2024/03/10 10:28:41;;;;;;;1.88;0.70;;;11.50;99.90;;;;;;5004425;28;20026;-82
2024/03/10 10:31:15;;;;;;;1.85;1.00;;;11.50;99.90;;;;;;5000481;28;20124;-82
2024/03/10 10:33:41;;;;;;;0.95;0.95;;;11.60;99.90;;;;;;5015656;28;20032;-82
2024/03/10 10:36:07;;;;;;;1.73;1.10;;;11.50;99.90;;;;;;5003912;28;20041;-82
2024/03/10 10:38:40;;;;;;;0.60;0.60;;;11.60;99.90;;;;;;5002860;28;20030;-82
2024/03/10 10:41:08;;;;;;;2.58;1.05;;;11.60;99.90;;;;;;4998993;28;20030;-82
2024/03/10 10:43:38;;;;;;;1.10;0.98;;;11.60;99.90;;;;;;5002990;28;20033;-82
2024/03/10 10:46:12;;;;;;;1.50;1.00;;;11.60;99.90;;;;;;5001726;28;20113;-82
2024/03/10 10:48:39;;;;;;;1.05;0.73;;;11.70;99.90;;;;;;5002452;28;20030;-82
2024/03/10 10:51:06;;;;;;;1.27;0.82;;;11.60;99.90;;;;;;5002087;28;20026;-83
2024/03/10 10:53:33;;;;;;;2.13;0.80;;;11.60;99.90;;;;;;5005128;28;20038;-84
2024/03/10 10:56:00;;;;;;;0.80;0.73;;;11.60;99.90;;;;;;5002196;28;20411;-84
2024/03/10 10:58:31;;;;;;;1.55;0.45;;;11.60;99.90;;;;;;5018899;28;20041;-84
2024/03/10 11:01:04;;;;;;;0.70;0.70;;;11.60;99.90;;;;;;4999946;28;20108;-85
2024/03/10 11:03:32;;;;;;;0.77;0.60;;;11.60;99.90;;;;;;5007117;28;20492;-84
2024/03/10 11:06:01;;;;;;;1.77;0.63;;;11.50;99.90;;;;;;4998390;28;20022;-84
2024/03/10 11:08:31;;;;;;;0.65;0.60;;;11.50;99.90;;;;;;4998393;28;20066;-84
2024/03/10 11:10:57;;;;;;;0.50;0.50;;;11.50;99.90;;;;;;5007156;28;20088;-84
2024/03/10 11:13:26;;;;;;;1.15;0.50;;;11.50;99.90;;;;;;4998534;28;20125;-84
2024/03/10 11:16:05;;;;;;;1.90;0.88;;;11.50;99.90;;;;;;5002575;28;20030;-86
2024/03/10 11:18:32;;;;;;;1.55;0.50;;;11.50;99.90;;;;;;5019185;28;20041;-88
2024/03/10 11:20:59;;;;;;;0.60;0.60;;;11.40;99.90;;;;;;5004927;28;20014;-88
2024/03/10 11:23:40;;;;;;;0.80;0.80;;;11.40;99.90;;;;;;4999952;28;20158;-90
2024/03/10 11:26:15;;;;;;;1.10;1.00;;;11.30;99.90;;;;;;5003680;28;20026;-91
2024/03/10 11:28:49;;;;;;;2.25;0.70;;;11.30;99.90;;;;;;5004892;28;20034;-91
2024/03/10 11:31:19;;;;;;;0.75;0.60;;;11.30;99.90;;;;;;5004206;28;20069;-91
2024/03/10 11:33:49;;;;;;;1.42;1.17;;;11.40;99.90;;;;;;4993207;28;20035;-91
2024/03/10 11:36:16;;;;;;;1.23;0.77;;;11.40;99.90;;;;;;4998196;28;20034;-91
2024/03/10 11:38:47;;;;;;;0.40;0.40;;;11.40;99.90;;;;;;5011641;28;20030;-92
2024/03/10 11:41:13;;;;;;;1.02;0.90;;;11.50;99.90;;;;;;5015059;28;20018;-91
2024/03/10 11:43:39;;;;;;;3.10;0.70;;;11.50;99.90;;;;;;5015277;28;20434;-91
2024/03/10 11:46:35;;;;;;;0.28;0.25;;;11.50;99.90;;;;;;5009041;28;20515;-91
2024/03/10 11:49:02;;;;;;;1.25;1.00;;;11.60;99.90;;;;;;4990851;28;20030;-91
2024/03/10 11:51:30;;;;;;;0.75;0.55;;;11.50;99.90;;;;;;4998932;28;20026;-90
2024/03/10 11:53:56;;;;;;;1.70;0.60;;;11.60;99.90;;;;;;5015343;28;20034;-91
2024/03/10 11:56:23;;;;;;;2.70;0.90;;;11.60;99.90;;;;;;5002736;28;20037;-91
2024/03/10 11:58:50;;;;;;;3.38;1.25;;;11.70;99.90;;;;;;5009090;28;20021;-91
2024/03/10 12:01:17;;;;;;;0.85;0.73;;;11.70;99.90;;;;;;5014922;28;20040;-92
2024/03/10 12:03:50;;;;;;;3.17;1.40;;;11.70;99.90;;;;;;5002521;28;20031;-91
2024/03/10 12:06:16;;;;;;;1.85;1.27;;;11.80;99.90;;;;;;5000944;28;20113;-91
2024/03/10 12:08:44;;;;;;;4.30;1.45;;;11.80;99.90;;;;;;5006911;28;20116;-90
2024/03/10 12:11:11;;;;;;;6.00;1.48;;;11.90;99.90;;;;;;5002344;28;20129;-91
2024/03/10 12:13:41;;;;;;;5.07;1.35;;;11.90;99.90;;;;;;5015959;28;20407;-91
2024/03/10 12:16:07;;;;;;;3.60;1.30;;;11.90;99.90;;;;;;5000624;28;20076;-91
2024/03/10 12:18:35;;;;;;;6.53;1.30;;;11.90;99.90;;;;;;5005481;28;20042;-90
2024/03/10 12:21:01;;;;;;;6.18;1.80;;;11.90;99.90;;;;;;5003818;28;20022;-89
2024/03/10 12:23:37;;;;;;;6.97;1.90;;;11.90;99.90;;;;;;5005273;28;20109;-88
2024/03/10 12:26:10;;;;;;;1.42;1.13;;;11.80;99.90;;;;;;5001864;28;20080;-89
2024/03/10 12:28:46;;;;;;;5.28;1.90;;;11.80;99.90;;;;;;5002119;28;20117;-88
2024/03/10 12:31:14;;;;;;;3.47;1.85;;;11.80;99.90;;;;;;5002599;28;20030;-88
2024/03/10 12:33:41;;;;;;;2.78;1.63;;;11.80;99.90;;;;;;5005197;28;20030;-89
2024/03/10 12:36:10;;;;;;;3.53;1.55;;;11.80;99.90;;;;;;5002035;28;20034;-89
2024/03/10 12:38:40;;;;;;;2.88;1.48;;;11.90;99.90;;;;;;5003574;28;20141;-89
2024/03/10 12:41:07;;;;;;;3.03;1.65;;;11.90;99.90;;;;;;5004888;28;20022;-89
2024/03/10 12:43:33;;;;;;;5.95;2.10;;;12.00;99.90;;;;;;5001879;28;20026;-89
2024/03/10 12:46:01;;;;;;;8.57;2.47;;;12.00;99.90;;;;;;5002006;28;20046;-89
2024/03/10 12:48:27;;;;;;;4.70;2.13;;;12.00;99.90;;;;;;5003526;28;20034;-88
2024/03/10 12:50:54;;;;;;;5.57;2.00;;;12.00;99.90;;;;;;5005044;28;20052;-89
2024/03/10 12:53:23;;;;;;;10.20;2.67;;;12.10;99.90;;;;;;5010178;28;20028;-89
2024/03/10 12:55:50;;;;;;;5.90;2.53;;;12.10;99.90;;;;;;5007524;28;20038;-89
2024/03/10 12:58:16;;;;;;;5.13;2.33;;;12.10;99.90;;;;;;5003514;28;20034;-89
2024/03/10 13:00:42;;;;;;;7.35;3.20;;;12.20;99.90;;;;;;5003756;28;20476;-89
2024/03/10 13:03:10;;;;;;;10.70;2.58;;;12.20;99.90;;;;;;5002110;28;20117;-89
2024/03/10 13:05:36;;;;;;;5.65;2.30;;;12.20;99.90;;;;;;5004768;28;20018;-89
2024/03/10 13:08:03;;;;;;;6.85;2.83;;;12.20;99.90;;;;;;5002155;28;20034;-89
2024/03/10 13:10:29;;;;;;;9.32;2.72;;;12.20;99.90;;;;;;5005322;28;20035;-89
2024/03/10 13:12:55;;;;;;;9.82;3.35;;;12.20;99.90;;;;;;5002495;28;20030;-89